createdAt,value
2022-09-28T00:01:10.493Z,28.90
2022-09-28T00:03:37.772Z,27.88
2022-09-28T00:06:07.607Z,26.67
2022-09-28T00:08:36.144Z,27.83
2022-09-28T00:11:05.144Z,29.52
2022-09-28T00:13:33.213Z,27.00
2022-09-28T00:16:08.765Z,27.88
2022-09-28T00:18:36.225Z,28.05
2022-09-28T00:21:16.403Z,26.33
2022-09-28T00:24:02.987Z,28.38
2022-09-28T00:26:33.076Z,28.73
2022-09-28T00:29:02.290Z,29.52
2022-09-28T00:31:32.845Z,29.48
2022-09-28T00:34:01.804Z,28.02
2022-09-28T00:36:30.992Z,28.75
2022-09-28T00:38:59.035Z,27.70
2022-09-28T00:41:27.660Z,29.13
2022-09-28T00:44:37.653Z,27.63
2022-09-28T00:47:10.257Z,28.10
2022-09-28T00:49:52.707Z,27.30
2022-09-28T00:52:28.543Z,26.98
2022-09-28T00:54:59.610Z,27.95
2022-09-28T00:57:27.730Z,28.45
2022-09-28T00:59:55.347Z,29.02
2022-09-28T01:02:22.718Z,26.98
2022-09-28T01:04:51.408Z,29.38
2022-09-28T01:07:19.567Z,27.48
2022-09-28T01:09:47.720Z,26.98
2022-09-28T01:12:14.744Z,26.05
2022-09-28T01:14:43.461Z,27.70
2022-09-28T01:17:36.930Z,25.38
2022-09-28T01:20:39.959Z,25.77
2022-09-28T01:23:51.370Z,26.10
2022-09-28T01:26:33.828Z,26.25
2022-09-28T01:29:16.848Z,27.35
2022-09-28T01:31:50.158Z,25.17
2022-09-28T01:34:47.546Z,26.00
2022-09-28T01:37:19.072Z,24.75
2022-09-28T01:39:50.033Z,25.17
2022-09-28T01:42:27.989Z,25.92
2022-09-28T01:45:01.755Z,25.63
2022-09-28T01:47:36.259Z,25.77
2022-09-28T01:50:25.188Z,26.52
2022-09-28T01:52:59.513Z,25.92
2022-09-28T01:55:30.284Z,25.38
2022-09-28T01:58:03.433Z,25.50
2022-09-28T02:00:32.761Z,25.25
2022-09-28T02:03:04.868Z,24.25
2022-09-28T02:05:52.911Z,23.75
2022-09-28T02:08:27.031Z,24.13
2022-09-28T02:11:06.135Z,25.08
2022-09-28T02:13:37.451Z,24.02
2022-09-28T02:16:06.547Z,25.85
2022-09-28T02:18:34.237Z,25.98
2022-09-28T02:21:11.764Z,25.95
2022-09-28T02:23:43.360Z,25.63
2022-09-28T02:26:13.951Z,24.83
2022-09-28T02:28:41.253Z,26.20
2022-09-28T02:31:08.395Z,25.50
2022-09-28T02:33:38.784Z,24.92
2022-09-28T02:36:07.041Z,27.67
2022-09-28T02:38:38.657Z,27.48
2022-09-28T02:41:26.788Z,27.40
2022-09-28T02:44:17.275Z,26.88
2022-09-28T02:47:02.128Z,26.30
2022-09-28T02:49:48.449Z,26.73
2022-09-28T02:52:34.891Z,25.65
2022-09-28T02:55:31.541Z,27.13
2022-09-28T02:58:10.997Z,26.65
2022-09-28T03:01:04.407Z,27.50
2022-09-28T03:03:53.176Z,26.17
2022-09-28T03:06:30.772Z,27.02
2022-09-28T03:09:06.311Z,26.35
2022-09-28T03:11:41.645Z,26.38
2022-09-28T03:16:47.553Z,26.50
2022-09-28T03:19:16.962Z,26.67
2022-09-28T03:21:44.094Z,26.13
2022-09-28T03:24:11.571Z,29.00
2022-09-28T03:26:39.152Z,27.40
2022-09-28T03:29:06.860Z,27.08
2022-09-28T03:31:35.243Z,27.45
2022-09-28T03:34:03.023Z,27.60
2022-09-28T03:36:31.598Z,27.00
2022-09-28T03:38:59.627Z,25.48
2022-09-28T03:41:28.053Z,24.75
2022-09-28T03:43:56.137Z,24.05
2022-09-28T03:49:09.180Z,26.65
2022-09-28T03:51:36.476Z,24.95
2022-09-28T03:54:03.794Z,26.35
2022-09-28T03:56:31.401Z,25.65
2022-09-28T03:58:58.393Z,24.27
2022-09-28T04:01:26.359Z,26.45
2022-09-28T04:03:57.839Z,25.52
2022-09-28T04:06:26.254Z,25.80
2022-09-28T04:08:53.671Z,24.17
2022-09-28T04:11:21.579Z,26.60
2022-09-28T04:13:50.153Z,27.02
2022-09-28T04:16:18.575Z,25.92
2022-09-28T04:18:55.056Z,25.55
2022-09-28T04:21:31.649Z,26.92
2022-09-28T04:24:08.123Z,24.42
2022-09-28T04:26:36.404Z,24.70
2022-09-28T04:29:18.886Z,24.92
2022-09-28T04:31:57.470Z,25.52
2022-09-28T04:34:37.211Z,24.85
2022-09-28T04:37:05.926Z,24.55
2022-09-28T04:39:33.053Z,25.50
2022-09-28T04:42:01.343Z,23.92
2022-09-28T04:44:29.047Z,22.63
2022-09-28T04:47:05.038Z,23.60
2022-09-28T04:49:32.385Z,23.50
2022-09-28T04:52:06.758Z,23.95
2022-09-28T04:54:35.270Z,23.42
2022-09-28T04:57:03.739Z,23.98
2022-09-28T04:59:30.870Z,23.13
2022-09-28T05:01:58.025Z,21.73
2022-09-28T05:04:43.525Z,20.83
2022-09-28T05:07:46.066Z,22.00
2022-09-28T05:10:13.350Z,23.85
2022-09-28T05:12:40.972Z,22.83
2022-09-28T05:15:08.197Z,22.88
2022-09-28T05:17:35.436Z,21.92
2022-09-28T05:20:42.203Z,21.92
2022-09-28T05:23:13.532Z,23.27
2022-09-28T05:25:42.844Z,20.50
2022-09-28T05:28:23.837Z,20.90
2022-09-28T05:31:11.024Z,20.30
2022-09-28T05:34:07.149Z,18.08
2022-09-28T05:36:35.706Z,18.85
2022-09-28T05:39:04.042Z,19.00
2022-09-28T05:41:31.365Z,18.88
2022-09-28T05:44:00.303Z,17.08
2022-09-28T05:46:27.430Z,17.20
2022-09-28T05:48:54.530Z,18.08
2022-09-28T05:51:22.256Z,17.17
2022-09-28T05:53:49.470Z,17.58
2022-09-28T05:56:17.853Z,16.80
2022-09-28T05:58:45.897Z,15.80
2022-09-28T06:01:14.777Z,14.23
2022-09-28T06:03:42.282Z,13.38
2022-09-28T06:06:09.353Z,12.02
2022-09-28T06:08:37.605Z,11.88
2022-09-28T06:11:33.824Z,10.82
2022-09-28T06:14:07.636Z,10.63
2022-09-28T06:16:35.142Z,9.00
2022-09-28T06:19:02.442Z,6.22
2022-09-28T06:21:52.180Z,6.88
2022-09-28T06:24:19.201Z,10.45
2022-09-28T06:26:46.753Z,11.75
2022-09-28T06:29:19.629Z,13.65
2022-09-28T06:31:47.317Z,11.07
2022-09-28T06:34:14.578Z,11.93
2022-09-28T06:36:41.687Z,12.05
2022-09-28T06:39:09.362Z,13.70
2022-09-28T06:41:37.258Z,11.43
2022-09-28T06:44:13.880Z,12.13
2022-09-28T06:46:50.914Z,12.20
2022-09-28T06:49:20.524Z,11.65
2022-09-28T06:52:06.111Z,11.63
2022-09-28T06:54:52.304Z,12.13
2022-09-28T06:57:36.769Z,11.23
2022-09-28T07:00:04.808Z,10.85
2022-09-28T07:02:32.332Z,12.32
2022-09-28T07:05:13.779Z,11.20
2022-09-28T07:07:59.312Z,10.35
2022-09-28T07:10:48.328Z,10.07
2022-09-28T07:13:50.542Z,11.20
2022-09-28T07:16:25.728Z,11.27
2022-09-28T07:18:54.448Z,11.27
2022-09-28T07:21:28.688Z,10.60
2022-09-28T07:24:00.095Z,10.15
2022-09-28T07:26:51.102Z,10.32
2022-09-28T07:29:32.320Z,10.75
2022-09-28T07:32:19.489Z,9.45
2022-09-28T07:35:10.755Z,10.15
2022-09-28T07:37:45.577Z,7.97
2022-09-28T07:40:31.203Z,9.38
2022-09-28T07:43:05.191Z,8.02
2022-09-28T07:45:36.767Z,7.57
2022-09-28T07:48:04.316Z,7.38
2022-09-28T07:50:40.400Z,7.28
2022-09-28T07:53:16.698Z,6.18
2022-09-28T07:56:08.975Z,5.93
2022-09-28T07:58:53.956Z,6.18
2022-09-28T08:01:49.549Z,2.70
2022-09-28T08:04:17.976Z,1.98
2022-09-28T08:06:48.343Z,2.72
2022-09-28T08:09:15.691Z,1.90
2022-09-28T08:12:01.508Z,1.92
2022-09-28T08:14:57.514Z,2.90
2022-09-28T08:17:47.394Z,2.30
2022-09-28T08:20:33.770Z,1.63
2022-09-28T08:23:06.037Z,1.58
2022-09-28T08:25:36.763Z,1.83
2022-09-28T08:28:07.322Z,1.65
2022-09-28T08:30:40.271Z,1.98
2022-09-28T08:33:14.157Z,2.05
2022-09-28T08:35:44.405Z,1.75
2022-09-28T08:38:16.979Z,1.52
2022-09-28T08:41:06.536Z,2.17
2022-09-28T08:44:05.215Z,1.60
2022-09-28T08:47:04.540Z,2.08
2022-09-28T08:49:51.865Z,1.73
2022-09-28T08:52:38.229Z,2.65
2022-09-28T08:55:31.608Z,3.97
2022-09-28T08:58:20.469Z,1.83
2022-09-28T09:00:53.173Z,1.52
2022-09-28T09:03:32.583Z,1.70
2022-09-28T09:06:29.761Z,1.85
2022-09-28T09:09:08.218Z,1.60
2022-09-28T09:12:03.390Z,1.80
2022-09-28T09:14:36.771Z,2.35
2022-09-28T09:17:25.944Z,2.13
2022-09-28T09:20:39.007Z,1.60
2022-09-28T09:23:29.608Z,2.00
2022-09-28T09:26:06.073Z,2.15
2022-09-28T09:29:11.650Z,2.00
2022-09-28T09:32:26.055Z,2.00
2022-09-28T09:35:15.914Z,2.38
2022-09-28T09:38:27.855Z,1.65
2022-09-28T09:41:29.187Z,1.88
2022-09-28T09:44:45.012Z,1.77
2022-09-28T09:47:43.033Z,1.83
2022-09-28T09:50:30.728Z,1.90
2022-09-28T09:53:13.146Z,2.03
2022-09-28T09:55:50.488Z,2.08
2022-09-28T09:59:01.358Z,2.13
2022-09-28T10:01:40.519Z,1.90
2022-09-28T10:04:39.556Z,1.73
2022-09-28T10:07:43.419Z,2.15
2022-09-28T10:10:34.731Z,1.73
2022-09-28T10:13:20.776Z,1.90
2022-09-28T10:15:50.497Z,2.45
2022-09-28T10:18:33.331Z,1.75
2022-09-28T10:21:21.636Z,1.73
2022-09-28T10:23:54.136Z,1.52
2022-09-28T10:26:25.976Z,1.73
2022-09-28T10:29:04.611Z,1.95
2022-09-28T10:31:39.446Z,2.00
2022-09-28T10:34:32.389Z,1.30
2022-09-28T10:37:10.489Z,1.90
2022-09-28T10:40:28.261Z,2.17
2022-09-28T10:43:05.116Z,1.50
2022-09-28T10:45:36.915Z,1.73
2022-09-28T10:48:14.367Z,1.75
2022-09-28T10:50:42.335Z,2.00
2022-09-28T10:53:21.863Z,1.70
2022-09-28T10:56:24.237Z,1.60
2022-09-28T10:58:58.083Z,1.65
2022-09-28T11:01:43.693Z,1.92
2022-09-28T11:04:21.372Z,1.90
2022-09-28T11:06:48.444Z,1.60
2022-09-28T11:09:41.518Z,2.00
2022-09-28T11:12:16.667Z,1.70
2022-09-28T11:14:44.549Z,2.17
2022-09-28T11:17:30.381Z,2.00
2022-09-28T11:19:59.951Z,1.40
2022-09-28T11:22:30.185Z,1.95
2022-09-28T11:25:16.739Z,1.40
2022-09-28T11:27:52.981Z,1.75
2022-09-28T11:30:20.687Z,1.33
2022-09-28T11:33:39.236Z,1.40
2022-09-28T11:36:55.654Z,2.78
2022-09-28T11:39:59.037Z,1.40
2022-09-28T11:42:48.684Z,1.23
2022-09-28T11:45:26.395Z,1.48
2022-09-28T11:48:01.920Z,1.48
2022-09-28T11:50:43.462Z,1.27
2022-09-28T11:53:22.571Z,1.40
2022-09-28T11:56:33.570Z,1.40
2022-09-28T11:59:11.428Z,1.45
2022-09-28T12:02:15.897Z,1.67
2022-09-28T12:05:04.691Z,1.35
2022-09-28T12:07:38.349Z,1.40
2022-09-28T12:10:34.143Z,1.33
2022-09-28T12:13:13.332Z,1.52
2022-09-28T12:16:27.633Z,1.58
2022-09-28T12:19:02.524Z,1.45
2022-09-28T12:21:42.573Z,1.83
2022-09-28T12:24:23.115Z,1.73
2022-09-28T12:27:02.062Z,1.80
2022-09-28T12:30:12.469Z,1.48
2022-09-28T12:32:51.418Z,1.15
2022-09-28T12:35:48.722Z,1.60
2022-09-28T12:38:54.102Z,1.70
2022-09-28T12:44:40.880Z,1.85
2022-09-28T12:47:31.025Z,1.48
2022-09-28T12:50:39.626Z,1.48
2022-09-28T12:53:19.408Z,1.70
2022-09-28T12:56:09.202Z,2.28
2022-09-28T12:59:02.079Z,1.75
2022-09-28T13:01:41.129Z,1.63
2022-09-28T13:04:52.352Z,1.70
2022-09-28T13:07:19.278Z,1.50
2022-09-28T13:10:01.536Z,1.55
2022-09-28T13:12:47.250Z,1.75
2022-09-28T13:15:32.411Z,1.70
2022-09-28T13:18:35.353Z,1.80
2022-09-28T13:21:05.323Z,2.22
2022-09-28T13:23:46.241Z,1.50
2022-09-28T13:26:32.684Z,3.13
2022-09-28T13:29:11.954Z,1.80
2022-09-28T13:31:53.399Z,1.85
2022-09-28T13:34:33.466Z,1.58
2022-09-28T13:37:14.506Z,1.90
2022-09-28T13:39:56.422Z,1.70
2022-09-28T13:42:36.263Z,2.50
2022-09-28T13:45:22.968Z,1.88
2022-09-28T13:48:16.027Z,1.90
2022-09-28T13:51:04.368Z,2.05
2022-09-28T13:53:31.233Z,2.17
2022-09-28T13:55:58.975Z,2.35
2022-09-28T13:58:31.535Z,2.17
2022-09-28T14:01:01.551Z,2.40
2022-09-28T14:04:00.826Z,1.90
2022-09-28T14:06:30.900Z,1.92
2022-09-28T14:09:13.170Z,2.47
2022-09-28T14:11:53.497Z,1.60
2022-09-28T14:14:29.422Z,2.28
2022-09-28T14:17:21.059Z,2.00
2022-09-28T14:19:56.278Z,1.90
2022-09-28T14:22:32.507Z,1.88
2022-09-28T14:25:23.751Z,1.73
2022-09-28T14:28:06.676Z,2.00
2022-09-28T14:30:42.699Z,1.77
2022-09-28T14:33:30.296Z,1.80
2022-09-28T14:36:07.599Z,2.00
2022-09-28T14:39:08.833Z,1.98
2022-09-28T14:41:39.993Z,2.08
2022-09-28T14:44:10.220Z,1.98
2022-09-28T14:46:46.764Z,2.30
2022-09-28T14:49:20.107Z,2.13
2022-09-28T14:51:58.704Z,2.05
2022-09-28T14:54:28.547Z,2.58
2022-09-28T14:56:58.925Z,1.70
2022-09-28T14:59:35.951Z,1.90
2022-09-28T15:02:15.003Z,2.15
2022-09-28T15:04:47.088Z,2.17
2022-09-28T15:07:25.077Z,1.60
2022-09-28T15:09:54.766Z,2.00
2022-09-28T15:12:27.812Z,2.45
2022-09-28T15:15:04.172Z,2.33
2022-09-28T15:17:39.457Z,2.05
2022-09-28T15:20:24.939Z,2.22
2022-09-28T15:22:58.495Z,2.22
2022-09-28T15:25:31.715Z,2.28
2022-09-28T15:28:16.312Z,2.35
2022-09-28T15:30:43.805Z,2.33
2022-09-28T15:33:44.187Z,2.60
2022-09-28T15:36:19.564Z,2.08
2022-09-28T15:38:53.694Z,2.30
2022-09-28T15:41:24.972Z,2.28
2022-09-28T15:44:12.143Z,2.63
2022-09-28T15:46:42.423Z,2.55
2022-09-28T15:49:31.162Z,2.58
2022-09-28T15:52:02.291Z,2.92
2022-09-28T15:54:43.691Z,2.55
2022-09-28T15:57:28.571Z,3.40
2022-09-28T15:59:56.989Z,3.45
2022-09-28T16:02:25.279Z,3.13
2022-09-28T16:04:55.197Z,2.80
2022-09-28T16:07:34.416Z,2.80
2022-09-28T16:10:13.740Z,2.40
2022-09-28T16:12:42.586Z,2.95
2022-09-28T16:15:25.701Z,2.40
2022-09-28T16:17:54.945Z,2.40
2022-09-28T16:20:23.665Z,2.50
2022-09-28T16:22:52.691Z,2.55
2022-09-28T16:25:25.491Z,2.70
2022-09-28T16:27:55.168Z,2.40
2022-09-28T16:30:28.794Z,2.67
2022-09-28T16:35:30.741Z,2.05
2022-09-28T16:38:11.948Z,2.22
2022-09-28T16:40:49.473Z,2.00
2022-09-28T16:43:37.007Z,2.25
2022-09-28T16:46:12.058Z,2.28
2022-09-28T16:48:48.909Z,2.50
2022-09-28T16:51:20.541Z,2.55
2022-09-28T16:54:06.601Z,3.30
2022-09-28T16:56:35.720Z,2.53
2022-09-28T16:59:04.431Z,3.30
2022-09-28T17:01:31.598Z,3.10
2022-09-28T17:03:58.871Z,2.50
2022-09-28T17:06:26.946Z,2.78
2022-09-28T17:08:58.729Z,2.70
2022-09-28T17:11:25.707Z,2.50
2022-09-28T17:13:56.805Z,3.95
2022-09-28T17:19:25.880Z,3.28
2022-09-28T17:21:54.318Z,2.15
2022-09-28T17:24:21.589Z,2.80
2022-09-28T17:26:50.945Z,2.80
2022-09-28T17:29:19.144Z,2.90
2022-09-28T17:31:47.220Z,3.42
2022-09-28T17:34:16.252Z,2.83
2022-09-28T17:36:44.813Z,2.83
2022-09-28T17:39:13.986Z,3.10
2022-09-28T17:41:42.282Z,2.75
2022-09-28T17:44:09.218Z,2.70
2022-09-28T17:46:45.945Z,2.88
2022-09-28T17:49:14.312Z,3.45
2022-09-28T17:51:41.425Z,3.17
2022-09-28T17:54:08.652Z,4.07
2022-09-28T17:56:36.629Z,3.10
2022-09-28T17:59:06.858Z,2.95
2022-09-28T18:01:37.848Z,2.70
2022-09-28T18:04:08.098Z,3.17
2022-09-28T18:06:35.160Z,3.45
2022-09-28T18:09:03.181Z,3.45
2022-09-28T18:11:31.666Z,3.30
2022-09-28T18:13:58.575Z,3.17
2022-09-28T18:16:27.889Z,3.10
2022-09-28T18:18:55.045Z,2.78
2022-09-28T18:21:22.055Z,3.45
2022-09-28T18:23:48.947Z,3.63
2022-09-28T18:26:16.835Z,2.95
2022-09-28T18:28:43.764Z,3.20
2022-09-28T18:31:14.214Z,3.58
2022-09-28T18:33:50.661Z,3.30
2022-09-28T18:36:17.593Z,2.70
2022-09-28T18:38:44.503Z,2.78
2022-09-28T18:41:15.784Z,3.30
2022-09-28T18:43:52.099Z,3.97
2022-09-28T18:46:19.136Z,3.03
2022-09-28T18:48:47.764Z,3.60
2022-09-28T18:51:15.296Z,3.42
2022-09-28T18:53:42.582Z,3.85
2022-09-28T18:56:12.992Z,4.07
2022-09-28T18:58:41.688Z,3.92
2022-09-28T19:01:34.748Z,3.30
2022-09-28T19:04:03.653Z,3.47
2022-09-28T19:06:31.824Z,3.33
2022-09-28T19:08:59.103Z,3.20
2022-09-28T19:11:26.970Z,3.45
2022-09-28T19:13:55.206Z,3.85
2022-09-28T19:16:25.527Z,3.30
2022-09-28T19:18:53.702Z,3.72
2022-09-28T19:21:21.266Z,3.72
2022-09-28T19:23:49.778Z,4.15
2022-09-28T19:26:23.914Z,3.45
2022-09-28T19:28:51.066Z,3.40
2022-09-28T19:31:18.421Z,3.42
2022-09-28T19:33:46.545Z,4.00
2022-09-28T19:36:19.750Z,3.70
2022-09-28T19:38:46.713Z,3.22
2022-09-28T19:41:39.610Z,3.38
2022-09-28T19:44:15.596Z,3.13
2022-09-28T19:46:42.978Z,2.88
2022-09-28T19:49:19.377Z,3.30
2022-09-28T19:54:37.593Z,3.40
2022-09-28T19:57:08.666Z,3.33
2022-09-28T19:59:39.233Z,2.85
2022-09-28T20:02:07.970Z,3.63
2022-09-28T20:04:35.214Z,3.58
2022-09-28T20:07:02.712Z,2.85
2022-09-28T20:09:29.776Z,4.30
2022-09-28T20:11:57.244Z,3.00
2022-09-28T20:14:26.415Z,3.33
2022-09-28T20:16:55.229Z,3.00
2022-09-28T20:19:23.315Z,2.75
2022-09-28T20:21:50.684Z,2.95
2022-09-28T20:24:17.627Z,2.60
2022-09-28T20:26:45.971Z,3.05
2022-09-28T20:29:13.353Z,2.83
2022-09-28T20:31:41.207Z,3.00
2022-09-28T20:34:09.266Z,3.40
2022-09-28T20:36:36.235Z,2.92
2022-09-28T20:39:03.937Z,3.42
2022-09-28T20:41:36.516Z,3.17
2022-09-28T20:44:06.126Z,2.80
2022-09-28T20:46:35.234Z,2.70
2022-09-28T20:49:02.550Z,2.92
2022-09-28T20:51:29.561Z,2.55
2022-09-28T20:53:58.949Z,2.17
2022-09-28T20:56:31.616Z,2.45
2022-09-28T20:58:58.518Z,3.00
2022-09-28T21:01:30.621Z,2.67
2022-09-28T21:03:59.950Z,2.47
2022-09-28T21:06:29.666Z,3.22
2022-09-28T21:08:57.828Z,2.78
2022-09-28T21:11:26.635Z,2.50
2022-09-28T21:13:56.086Z,2.60
2022-09-28T21:16:23.115Z,2.63
2022-09-28T21:18:50.102Z,2.15
2022-09-28T21:21:19.296Z,2.35
2022-09-28T21:23:46.856Z,2.85
2022-09-28T21:26:18.855Z,2.72
2022-09-28T21:28:46.643Z,2.40
2022-09-28T21:31:14.766Z,2.30
2022-09-28T21:33:41.807Z,2.38
2022-09-28T21:36:08.863Z,2.60
2022-09-28T21:38:35.784Z,2.60
2022-09-28T21:41:03.018Z,2.40
2022-09-28T21:43:31.803Z,2.70
2022-09-28T21:45:58.778Z,2.38
2022-09-28T21:48:27.894Z,2.55
2022-09-28T21:50:58.180Z,2.20
2022-09-28T21:53:26.478Z,2.15
2022-09-28T21:55:54.350Z,2.28
2022-09-28T21:58:24.688Z,2.00
2022-09-28T22:01:04.500Z,2.67
2022-09-28T22:03:33.007Z,2.80
2022-09-28T22:05:59.952Z,2.35
2022-09-28T22:08:27.259Z,2.28
2022-09-28T22:11:05.741Z,2.15
2022-09-28T22:13:44.595Z,2.85
2022-09-28T22:16:13.227Z,3.00
2022-09-28T22:18:41.025Z,2.45
2022-09-28T22:21:10.661Z,2.83
2022-09-28T22:23:38.504Z,2.10
2022-09-28T22:26:20.704Z,2.08
2022-09-28T22:28:52.163Z,2.63
2022-09-28T22:31:21.077Z,2.00
2022-09-28T22:33:48.619Z,2.17
2022-09-28T22:36:16.927Z,1.80
2022-09-28T22:38:44.964Z,2.15
2022-09-28T22:41:12.498Z,2.47
2022-09-28T22:43:39.429Z,2.00
2022-09-28T22:46:09.124Z,2.15
2022-09-28T22:48:36.428Z,2.20
2022-09-28T22:51:05.282Z,1.92
2022-09-28T22:53:33.227Z,2.22
2022-09-28T22:56:01.576Z,2.13
2022-09-28T22:58:28.493Z,1.77
2022-09-28T23:00:57.071Z,2.25
2022-09-28T23:03:24.040Z,2.25
2022-09-28T23:05:55.160Z,2.50
2022-09-28T23:08:23.222Z,1.90
2022-09-28T23:10:51.030Z,3.53
2022-09-28T23:13:18.515Z,1.77
2022-09-28T23:15:59.011Z,2.20
2022-09-28T23:18:28.960Z,1.90
2022-09-28T23:21:00.150Z,2.13
2022-09-28T23:23:27.900Z,2.60
2022-09-28T23:25:55.513Z,2.10
2022-09-28T23:28:24.293Z,2.17
2022-09-28T23:30:51.692Z,2.38
2022-09-28T23:33:20.048Z,2.15
2022-09-28T23:35:47.302Z,2.08
2022-09-28T23:38:18.026Z,2.42
2022-09-28T23:40:46.450Z,2.33
2022-09-28T23:43:14.200Z,2.17
2022-09-28T23:45:43.919Z,2.13
2022-09-28T23:48:11.766Z,2.45
2022-09-28T23:50:38.680Z,2.13
2022-09-28T23:53:05.699Z,2.30
2022-09-28T23:55:32.809Z,2.40
2022-09-28T23:57:59.757Z,2.08
